Time;durP1;ratioP1;P1;durP2;ratioP2;P2;SDS_P1;SDS_P2;PMS_P1;PMS_P2;Temp;Humidity;BMP_temperature;BMP_pressure;BME280_temperature;BME280_humidity;BME280_pressure;Samples;Min_cycle;Max_cycle;Signal;HPM_P1;HPM_P2
2020/12/11 00:02:24;;;;;;;62.58;24.50;;;0.20;99.90;;;;;;5034186;28;20547;-77
2020/12/11 00:04:50;;;;;;;59.42;25.02;;;0.30;99.90;;;;;;5034356;28;20234;-77
2020/12/11 00:07:16;;;;;;;62.03;25.27;;;0.20;99.90;;;;;;5034287;28;20206;-77
2020/12/11 00:09:43;;;;;;;57.13;23.30;;;0.20;99.90;;;;;;5034429;28;20230;-77
2020/12/11 00:12:09;;;;;;;57.05;24.42;;;0.20;99.90;;;;;;5034581;28;20294;-77
2020/12/11 00:14:35;;;;;;;54.35;24.38;;;0.20;99.90;;;;;;5035215;28;20257;-77
2020/12/11 00:17:03;;;;;;;55.65;21.20;;;0.30;99.90;;;;;;5040925;28;20204;-77
2020/12/11 00:19:29;;;;;;;56.60;24.02;;;0.30;99.90;;;;;;5046525;28;20199;-77
2020/12/11 00:21:55;;;;;;;50.45;21.95;;;0.30;99.90;;;;;;5043795;28;20214;-77
2020/12/11 00:24:21;;;;;;;57.28;24.88;;;0.20;99.90;;;;;;5038227;28;20204;-77
2020/12/11 00:26:47;;;;;;;61.05;23.00;;;0.30;99.90;;;;;;5037307;28;20203;-77
2020/12/11 00:29:14;;;;;;;54.63;24.60;;;0.30;99.90;;;;;;5037462;28;20249;-77
2020/12/11 00:31:40;;;;;;;60.55;23.98;;;0.30;99.90;;;;;;5037554;28;20214;-77
2020/12/11 00:34:07;;;;;;;66.18;25.70;;;0.30;99.90;;;;;;5037526;28;20203;-76
2020/12/11 00:36:34;;;;;;;46.72;24.70;;;0.30;99.90;;;;;;5036742;28;20615;-76
2020/12/11 00:39:00;;;;;;;54.55;22.73;;;0.30;99.90;;;;;;5037370;28;20204;-76
2020/12/11 00:41:26;;;;;;;52.03;21.83;;;0.30;99.90;;;;;;5038188;28;20662;-77
2020/12/11 00:43:52;;;;;;;47.78;21.98;;;0.30;99.90;;;;;;5037276;28;20211;-77
2020/12/11 00:46:24;;;;;;;54.17;23.35;;;0.30;99.90;;;;;;5037896;28;20330;-77
2020/12/11 00:48:50;;;;;;;47.38;20.75;;;0.20;99.90;;;;;;5037470;28;20196;-77
2020/12/11 00:51:19;;;;;;;50.33;21.95;;;0.30;99.90;;;;;;5037026;28;20199;-76
2020/12/11 00:53:46;;;;;;;47.53;20.55;;;0.30;99.90;;;;;;5037416;28;20211;-78
2020/12/11 00:56:12;;;;;;;50.90;21.35;;;0.20;99.90;;;;;;5036937;28;20219;-77
2020/12/11 00:58:38;;;;;;;46.03;21.45;;;0.20;99.90;;;;;;5036420;28;20203;-76
2020/12/11 01:01:05;;;;;;;38.20;18.75;;;0.20;99.90;;;;;;5036865;28;20207;-77
2020/12/11 01:03:31;;;;;;;47.60;20.42;;;0.30;99.90;;;;;;5036848;28;20199;-77
2020/12/11 01:05:57;;;;;;;42.80;18.98;;;0.30;99.90;;;;;;5037277;28;20314;-77
2020/12/11 01:08:24;;;;;;;41.88;19.77;;;0.30;99.90;;;;;;5036694;28;20204;-77
2020/12/11 01:10:54;;;;;;;40.33;20.23;;;0.30;99.90;;;;;;5036643;28;20232;-77
2020/12/11 01:13:20;;;;;;;44.67;20.20;;;0.30;99.90;;;;;;5036664;28;20222;-77
2020/12/11 01:15:46;;;;;;;39.85;19.60;;;0.30;99.90;;;;;;5041902;28;20315;-77
2020/12/11 01:18:13;;;;;;;51.42;20.65;;;0.20;99.90;;;;;;5037451;28;20200;-77
2020/12/11 01:20:39;;;;;;;45.20;19.90;;;0.20;99.90;;;;;;5038103;28;20203;-77
2020/12/11 01:23:05;;;;;;;49.53;20.92;;;0.10;99.90;;;;;;5036667;28;20204;-77
2020/12/11 01:25:32;;;;;;;50.45;19.00;;;0.10;99.90;;;;;;5036809;28;20245;-78
2020/12/11 01:27:59;;;;;;;45.95;21.13;;;0.20;99.90;;;;;;5036463;28;20286;-77
2020/12/11 01:30:25;;;;;;;47.60;20.60;;;0.30;99.90;;;;;;5037186;28;20615;-77
2020/12/11 01:32:51;;;;;;;53.42;23.10;;;0.20;99.90;;;;;;5037082;28;20227;-77
2020/12/11 01:35:18;;;;;;;57.28;23.35;;;0.20;99.90;;;;;;5036673;28;20241;-77
2020/12/11 01:37:44;;;;;;;49.25;22.42;;;0.30;99.90;;;;;;5036411;28;20575;-77
2020/12/11 01:40:10;;;;;;;60.03;21.42;;;0.20;99.90;;;;;;5037208;28;20207;-77
2020/12/11 01:42:37;;;;;;;61.13;25.70;;;0.10;99.90;;;;;;5036505;28;20578;-77
2020/12/11 01:45:04;;;;;;;61.33;23.95;;;0.20;99.90;;;;;;5036049;28;20230;-77
2020/12/11 01:47:31;;;;;;;56.15;25.17;;;0.20;99.90;;;;;;5036447;28;20327;-77
2020/12/11 01:49:57;;;;;;;53.15;24.88;;;0.30;99.90;;;;;;5036778;28;20223;-77
2020/12/11 01:52:24;;;;;;;52.72;21.42;;;0.40;99.90;;;;;;5036530;28;20204;-77
2020/12/11 01:54:50;;;;;;;51.25;21.55;;;0.40;99.90;;;;;;5035647;28;20227;-77
2020/12/11 01:57:23;;;;;;;56.15;21.35;;;0.30;99.90;;;;;;5035928;28;20545;-77
2020/12/11 01:59:54;;;;;;;45.60;19.48;;;0.20;99.90;;;;;;5036160;28;20188;-77
2020/12/11 02:02:21;;;;;;;47.97;21.52;;;0.20;99.90;;;;;;5036493;28;20196;-77
2020/12/11 02:04:48;;;;;;;45.70;19.17;;;0.20;99.90;;;;;;5036235;28;20220;-77
2020/12/11 02:07:15;;;;;;;52.90;22.33;;;0.20;99.90;;;;;;5036113;28;20580;-77
2020/12/11 02:09:43;;;;;;;43.60;20.77;;;0.30;99.90;;;;;;5036806;28;20695;-77
2020/12/11 02:12:09;;;;;;;48.17;20.90;;;0.30;99.90;;;;;;5036849;28;20631;-77
2020/12/11 02:14:36;;;;;;;45.90;20.23;;;0.20;99.90;;;;;;5037052;28;20232;-77
2020/12/11 02:17:05;;;;;;;43.40;19.60;;;0.20;99.90;;;;;;5036572;28;20581;-77
2020/12/11 02:19:33;;;;;;;48.75;21.27;;;0.20;99.90;;;;;;5035753;28;20207;-78
2020/12/11 02:22:00;;;;;;;43.78;19.58;;;0.10;99.90;;;;;;5035870;28;20231;-77
2020/12/11 02:24:27;;;;;;;57.13;24.27;;;0.10;99.90;;;;;;5034863;28;20200;-77
2020/12/11 02:26:54;;;;;;;45.67;20.75;;;0.10;99.90;;;;;;5035749;28;20208;-77
2020/12/11 02:29:21;;;;;;;48.17;21.48;;;0.20;99.90;;;;;;5035386;28;20229;-77
2020/12/11 02:31:47;;;;;;;52.92;22.33;;;0.20;99.90;;;;;;5035260;28;20269;-77
2020/12/11 02:34:14;;;;;;;49.80;20.80;;;0.20;99.90;;;;;;5035191;28;20211;-77
2020/12/11 02:36:40;;;;;;;54.80;23.00;;;0.10;99.90;;;;;;5035173;28;20249;-77
2020/12/11 02:39:07;;;;;;;49.53;20.88;;;0.10;99.90;;;;;;5035118;28;20204;-77
2020/12/11 02:41:33;;;;;;;46.40;20.80;;;0.30;99.90;;;;;;5035827;28;20203;-77
2020/12/11 02:44:01;;;;;;;45.15;20.73;;;0.20;99.90;;;;;;5036524;28;20203;-77
2020/12/11 02:46:27;;;;;;;40.53;20.25;;;0.20;99.90;;;;;;5036009;28;20273;-77
2020/12/11 02:48:53;;;;;;;56.05;21.75;;;0.20;99.90;;;;;;5036183;28;20203;-77
2020/12/11 02:51:20;;;;;;;54.53;22.52;;;0.20;99.90;;;;;;5035579;28;20550;-77
2020/12/11 02:53:49;;;;;;;53.20;22.77;;;0.20;99.90;;;;;;5034846;28;20203;-77
2020/12/11 02:56:18;;;;;;;53.42;21.65;;;0.30;99.90;;;;;;5034426;28;20235;-77
2020/12/11 02:58:45;;;;;;;53.53;22.02;;;0.20;99.90;;;;;;5034820;28;20672;-78
2020/12/11 03:01:11;;;;;;;51.35;20.95;;;0.20;99.90;;;;;;5035668;28;20203;-77
2020/12/11 03:03:37;;;;;;;46.00;20.58;;;0.20;99.90;;;;;;5035620;28;20207;-77
2020/12/11 03:06:04;;;;;;;58.50;24.58;;;0.20;99.90;;;;;;5035219;28;20220;-77
2020/12/11 03:08:30;;;;;;;53.80;21.75;;;0.10;99.90;;;;;;5034923;28;20290;-77
2020/12/11 03:10:57;;;;;;;60.38;25.13;;;0.10;99.90;;;;;;5034880;28;20223;-77
2020/12/11 03:13:24;;;;;;;53.80;23.58;;;0.20;99.90;;;;;;5035186;28;20211;-77
2020/12/11 03:15:50;;;;;;;51.95;22.02;;;0.20;99.90;;;;;;5034594;28;20223;-77
2020/12/11 03:18:16;;;;;;;57.35;22.25;;;0.10;99.90;;;;;;5034507;28;20204;-77
2020/12/11 03:20:43;;;;;;;50.67;22.42;;;0.10;99.90;;;;;;5034598;28;20196;-77
2020/12/11 03:23:09;;;;;;;50.25;23.17;;;0.00;99.90;;;;;;5034312;28;20203;-76
2020/12/11 03:25:35;;;;;;;47.25;20.48;;;0.00;99.90;;;;;;5034652;28;20250;-77
2020/12/11 03:28:02;;;;;;;50.50;21.50;;;0.10;99.90;;;;;;5034596;28;20200;-76
2020/12/11 03:30:29;;;;;;;45.13;20.92;;;0.10;99.90;;;;;;5034859;28;20224;-77
2020/12/11 03:32:56;;;;;;;47.08;20.60;;;0.20;99.90;;;;;;5034596;28;20203;-76
2020/12/11 03:35:23;;;;;;;43.55;20.73;;;0.20;99.90;;;;;;5034367;28;20235;-77
2020/12/11 03:37:49;;;;;;;49.38;21.33;;;0.20;99.90;;;;;;5034939;28;20294;-76
2020/12/11 03:40:15;;;;;;;57.10;23.85;;;0.10;99.90;;;;;;5034603;28;20204;-77
2020/12/11 03:42:41;;;;;;;52.75;22.45;;;0.10;99.90;;;;;;5034032;28;20688;-78
2020/12/11 03:45:08;;;;;;;61.63;22.25;;;0.10;99.90;;;;;;5034637;28;20235;-77
2020/12/11 03:47:36;;;;;;;50.63;22.80;;;0.10;99.90;;;;;;5035018;28;20203;-77
2020/12/11 03:50:03;;;;;;;57.90;23.35;;;0.10;99.90;;;;;;5034972;28;20247;-75
2020/12/11 03:52:30;;;;;;;51.88;23.48;;;0.10;99.90;;;;;;5038083;28;20199;-77
2020/12/11 03:54:57;;;;;;;54.40;24.25;;;0.00;99.90;;;;;;5039903;28;20266;-77
2020/12/11 03:57:23;;;;;;;54.85;21.63;;;0.00;99.90;;;;;;5038419;28;20569;-77
2020/12/11 03:59:49;;;;;;;45.50;22.80;;;-0.10;99.90;;;;;;5038482;28;20206;-77
2020/12/11 04:02:16;;;;;;;48.55;21.27;;;0.00;99.90;;;;;;5038483;28;20222;-77
2020/12/11 04:04:43;;;;;;;53.33;23.20;;;0.00;99.90;;;;;;5037941;28;20216;-77
2020/12/11 04:07:10;;;;;;;47.15;20.63;;;0.10;99.90;;;;;;5039047;28;20231;-77
2020/12/11 04:09:36;;;;;;;41.95;21.27;;;0.00;99.90;;;;;;5047369;28;20216;-76
2020/12/11 04:12:02;;;;;;;54.92;23.50;;;0.00;99.90;;;;;;5048941;28;20271;-77
2020/12/11 04:14:29;;;;;;;48.00;20.73;;;0.00;99.90;;;;;;5050017;28;20291;-76
2020/12/11 04:16:55;;;;;;;56.03;23.05;;;0.10;99.90;;;;;;5043677;28;20204;-77
2020/12/11 04:19:21;;;;;;;52.35;21.52;;;0.10;99.90;;;;;;5040869;28;20203;-77
2020/12/11 04:21:49;;;;;;;42.30;21.90;;;0.00;99.90;;;;;;5038667;28;20204;-77
2020/12/11 04:24:16;;;;;;;43.70;23.27;;;0.00;99.90;;;;;;5038253;28;20211;-77
2020/12/11 04:26:42;;;;;;;49.25;23.23;;;-0.20;99.90;;;;;;5038249;28;20847;-77
2020/12/11 04:29:09;;;;;;;43.78;21.08;;;-0.10;99.90;;;;;;5038883;28;20583;-77
2020/12/11 04:31:35;;;;;;;43.22;20.88;;;-0.10;99.90;;;;;;5038274;28;20226;-77
2020/12/11 04:34:02;;;;;;;47.90;21.05;;;-0.10;99.90;;;;;;5038795;28;20535;-77
2020/12/11 04:36:28;;;;;;;42.13;21.33;;;-0.10;99.90;;;;;;5037312;28;20238;-77
2020/12/11 04:38:56;;;;;;;57.92;24.80;;;0.00;99.90;;;;;;5038069;28;20445;-77
2020/12/11 04:41:26;;;;;;;45.55;22.33;;;0.00;99.90;;;;;;5037479;28;20473;-77
2020/12/11 04:43:55;;;;;;;46.60;23.50;;;0.10;99.90;;;;;;5037300;28;20648;-77
2020/12/11 04:46:26;;;;;;;52.45;24.77;;;0.10;99.90;;;;;;5037253;28;20319;-77
2020/12/11 04:48:53;;;;;;;47.78;20.50;;;0.10;99.90;;;;;;5037257;28;20187;-77
2020/12/11 04:51:21;;;;;;;53.88;23.42;;;0.00;99.90;;;;;;5037197;28;20480;-77
2020/12/11 04:53:52;;;;;;;50.17;23.10;;;0.00;99.90;;;;;;5037803;28;20212;-77
2020/12/11 04:56:21;;;;;;;46.67;21.40;;;0.10;99.90;;;;;;5040749;28;20228;-77
2020/12/11 04:58:50;;;;;;;50.60;23.07;;;0.10;99.90;;;;;;5042493;28;20505;-76
2020/12/11 05:01:29;;;;;;;55.65;23.65;;;0.00;99.90;;;;;;5051107;28;20414;-76
2020/12/11 05:03:56;;;;;;;60.70;23.75;;;0.10;99.90;;;;;;5046412;28;20640;-77
2020/12/11 05:06:22;;;;;;;47.15;22.40;;;0.10;99.90;;;;;;5038167;28;20238;-77
2020/12/11 05:08:49;;;;;;;47.25;21.98;;;0.10;99.90;;;;;;5036697;28;20208;-77
2020/12/11 05:11:29;;;;;;;55.22;23.25;;;0.00;99.90;;;;;;5037144;28;20224;-77
2020/12/11 05:13:55;;;;;;;46.90;23.80;;;0.10;99.90;;;;;;5036928;28;20707;-77
2020/12/11 05:16:22;;;;;;;49.25;24.90;;;0.00;99.90;;;;;;5036985;28;20220;-77
2020/12/11 05:19:03;;;;;;;49.22;23.38;;;0.10;99.90;;;;;;5036321;28;20203;-77
2020/12/11 05:21:31;;;;;;;46.13;22.42;;;-0.10;99.90;;;;;;5038739;28;20184;-77
2020/12/11 05:23:59;;;;;;;43.45;23.35;;;-0.10;99.90;;;;;;5039134;28;20583;-76
2020/12/11 05:26:26;;;;;;;48.97;22.80;;;-0.10;99.90;;;;;;5039682;28;20234;-77
2020/12/11 05:28:53;;;;;;;47.63;21.30;;;-0.10;99.90;;;;;;5038221;28;20235;-77
2020/12/11 05:31:20;;;;;;;49.55;21.90;;;-0.10;99.90;;;;;;5037180;28;20227;-77
2020/12/11 05:34:04;;;;;;;47.47;20.25;;;-0.10;99.90;;;;;;5036411;28;20208;-77
2020/12/11 05:36:46;;;;;;;39.20;20.27;;;0.00;99.90;;;;;;5059218;22;20247;-76
2020/12/11 05:39:13;;;;;;;40.08;20.50;;;0.00;99.90;;;;;;5037160;28;20267;-76
2020/12/11 05:41:39;;;;;;;43.80;20.35;;;0.10;99.90;;;;;;5036576;28;20295;-76
2020/12/11 05:44:23;;;;;;;46.72;20.27;;;0.10;99.90;;;;;;5036511;28;20214;-76
2020/12/11 05:46:49;;;;;;;45.65;22.58;;;0.10;99.90;;;;;;5036757;28;20219;-76
2020/12/11 05:49:23;;;;;;;40.03;22.60;;;0.10;99.90;;;;;;5035415;28;20208;-76
2020/12/11 05:51:59;;;;;;;48.05;23.90;;;0.20;99.90;;;;;;5035490;28;20188;-77
2020/12/11 05:54:25;;;;;;;50.17;22.45;;;0.10;99.90;;;;;;5035509;28;20197;-77
2020/12/11 05:56:53;;;;;;;57.70;26.42;;;0.20;99.90;;;;;;5034608;28;20776;-76
2020/12/11 05:59:26;;;;;;;58.45;24.75;;;0.20;99.90;;;;;;5035347;28;20469;-76
2020/12/11 06:01:57;;;;;;;54.95;24.23;;;0.20;99.90;;;;;;5034997;28;20237;-76
2020/12/11 06:04:25;;;;;;;58.37;26.03;;;0.10;99.90;;;;;;5034806;28;20543;-77
2020/12/11 06:06:56;;;;;;;55.38;23.88;;;0.00;99.90;;;;;;5034681;28;20470;-77
2020/12/11 06:09:35;;;;;;;50.85;24.65;;;0.00;99.90;;;;;;5035153;28;20195;-76
2020/12/11 06:12:03;;;;;;;72.70;27.55;;;0.00;99.90;;;;;;5035485;28;20663;-76
2020/12/11 06:14:40;;;;;;;58.65;25.27;;;0.00;99.90;;;;;;5034508;28;20437;-76
2020/12/11 06:17:08;;;;;;;62.20;25.80;;;0.10;99.90;;;;;;5035350;28;20195;-76
2020/12/11 06:19:38;;;;;;;56.67;23.42;;;0.20;99.90;;;;;;5035378;28;20211;-76
2020/12/11 06:22:07;;;;;;;59.42;27.50;;;0.20;99.90;;;;;;5033972;28;20810;-76
2020/12/11 06:24:33;;;;;;;57.20;26.60;;;0.40;99.90;;;;;;5035144;28;20208;-76
2020/12/11 06:27:01;;;;;;;62.22;26.45;;;0.40;99.90;;;;;;5034038;28;20763;-77
2020/12/11 06:29:29;;;;;;;66.70;29.77;;;0.20;99.90;;;;;;5034313;28;20441;-77
2020/12/11 06:31:56;;;;;;;70.30;28.08;;;0.30;99.90;;;;;;5035475;28;20279;-76
2020/12/11 06:34:24;;;;;;;53.30;26.08;;;0.20;99.90;;;;;;5034753;28;20203;-76
2020/12/11 06:36:51;;;;;;;54.10;24.98;;;0.20;99.90;;;;;;5034174;28;20239;-76
2020/12/11 06:39:40;;;;;;;60.85;26.98;;;0.20;99.90;;;;;;5033653;28;20207;-76
2020/12/11 06:42:06;;;;;;;55.47;25.25;;;0.10;99.90;;;;;;5033341;28;20258;-76
2020/12/11 06:44:33;;;;;;;67.03;25.33;;;0.10;99.90;;;;;;5033361;28;20204;-76
2020/12/11 06:47:18;;;;;;;61.65;25.05;;;0.20;99.90;;;;;;5033237;28;20207;-77
2020/12/11 06:50:06;;;;;;;54.85;23.38;;;0.30;99.90;;;;;;5033459;28;20199;-77
2020/12/11 06:52:35;;;;;;;49.92;24.13;;;0.20;99.90;;;;;;5033895;28;20197;-76
2020/12/11 06:55:01;;;;;;;54.35;24.00;;;0.30;99.90;;;;;;5033266;28;20715;-76
2020/12/11 06:57:33;;;;;;;59.85;26.15;;;0.30;99.90;;;;;;5033363;28;20199;-76
2020/12/11 06:59:59;;;;;;;60.13;24.83;;;0.30;99.90;;;;;;5033786;28;20200;-77
2020/12/11 07:02:27;;;;;;;53.22;23.98;;;0.40;99.90;;;;;;5033032;28;20204;-76
2020/12/11 07:04:53;;;;;;;52.97;23.88;;;0.30;99.90;;;;;;5033176;28;20196;-76
2020/12/11 07:07:30;;;;;;;54.85;26.90;;;0.30;99.90;;;;;;5033097;28;20203;-76
2020/12/11 07:09:56;;;;;;;51.88;25.60;;;0.30;99.90;;;;;;5033296;28;20215;-76
2020/12/11 07:12:24;;;;;;;59.88;25.73;;;0.30;99.90;;;;;;5032706;28;20637;-76
2020/12/11 07:14:50;;;;;;;54.75;24.25;;;0.30;99.90;;;;;;5033411;28;20206;-76
2020/12/11 07:17:24;;;;;;;53.65;25.25;;;0.20;99.90;;;;;;5033931;28;20211;-76
2020/12/11 07:19:51;;;;;;;48.33;25.15;;;0.10;99.90;;;;;;5032730;28;20192;-76
2020/12/11 07:22:20;;;;;;;50.40;23.05;;;0.20;99.90;;;;;;5032933;28;20199;-76
2020/12/11 07:24:47;;;;;;;58.35;22.92;;;0.30;99.90;;;;;;5032848;28;20261;-76
2020/12/11 07:27:13;;;;;;;53.15;22.70;;;0.30;99.90;;;;;;5032466;28;20233;-76
2020/12/11 07:29:48;;;;;;;54.47;24.30;;;0.30;99.90;;;;;;5032405;28;20192;-76
2020/12/11 07:32:18;;;;;;;49.97;23.02;;;0.40;99.90;;;;;;5032654;28;20187;-76
2020/12/11 07:34:45;;;;;;;56.08;23.92;;;0.40;99.90;;;;;;5032813;28;20188;-76
2020/12/11 07:37:12;;;;;;;56.92;24.85;;;0.50;99.90;;;;;;5033680;28;20192;-76
2020/12/11 07:39:38;;;;;;;52.28;24.65;;;0.50;99.90;;;;;;5033431;28;20207;-76
2020/12/11 07:42:07;;;;;;;51.00;23.40;;;0.50;99.90;;;;;;5033307;28;20203;-76
2020/12/11 07:44:35;;;;;;;52.33;21.60;;;0.50;99.90;;;;;;5033008;28;20281;-76
2020/12/11 07:47:06;;;;;;;57.72;25.48;;;0.50;99.90;;;;;;5032989;28;20210;-76
2020/12/11 07:49:35;;;;;;;59.72;30.58;;;0.50;99.90;;;;;;5033548;28;20195;-76
2020/12/11 07:52:02;;;;;;;53.13;22.48;;;0.40;99.90;;;;;;5033037;28;20659;-76
2020/12/11 07:54:35;;;;;;;43.55;20.83;;;0.50;99.90;;;;;;5032675;28;20651;-76
2020/12/11 07:57:09;;;;;;;53.42;22.50;;;0.50;99.90;;;;;;5033275;28;20184;-76
2020/12/11 07:59:35;;;;;;;52.83;23.33;;;0.50;99.90;;;;;;5036173;28;20215;-78
2020/12/11 08:02:01;;;;;;;44.72;21.63;;;0.50;99.90;;;;;;5034403;28;20204;-77
2020/12/11 08:04:28;;;;;;;51.45;23.48;;;0.60;99.90;;;;;;5033666;28;20207;-77
2020/12/11 08:06:58;;;;;;;51.47;23.63;;;0.60;99.90;;;;;;5033421;28;20227;-76
2020/12/11 08:09:29;;;;;;;47.47;21.20;;;0.60;99.90;;;;;;5032700;28;20268;-76
2020/12/11 08:12:11;;;;;;;51.38;21.75;;;0.60;99.90;;;;;;5032464;28;20204;-76
2020/12/11 08:14:40;;;;;;;42.45;20.27;;;0.50;99.90;;;;;;5032175;28;20184;-76
2020/12/11 08:17:08;;;;;;;44.63;19.80;;;0.50;99.90;;;;;;5032139;28;20631;-76
2020/12/11 08:19:34;;;;;;;43.42;20.55;;;0.50;99.90;;;;;;5033532;28;20207;-76
2020/12/11 08:22:10;;;;;;;41.95;19.67;;;0.50;99.90;;;;;;5033371;28;20287;-75
2020/12/11 08:24:37;;;;;;;41.88;19.58;;;0.60;99.90;;;;;;5033710;28;20627;-77
2020/12/11 08:27:04;;;;;;;50.17;22.50;;;0.40;99.90;;;;;;5035857;28;20200;-77
2020/12/11 08:29:30;;;;;;;51.03;21.33;;;0.40;99.90;;;;;;5033831;28;20254;-77
2020/12/11 08:31:57;;;;;;;44.55;22.63;;;0.40;99.90;;;;;;5035099;28;20312;-77
2020/12/11 08:34:30;;;;;;;45.00;22.20;;;0.50;99.90;;;;;;5035826;28;20295;-77
2020/12/11 08:37:02;;;;;;;47.67;22.85;;;0.50;99.90;;;;;;5036684;28;20235;-77
2020/12/11 08:39:29;;;;;;;52.30;22.27;;;0.50;99.90;;;;;;5038062;28;20283;-77
2020/12/11 08:45:14;;;;;;;43.67;22.83;;;0.50;99.90;;;;;;5032484;28;20227;-77
2020/12/11 08:50:30;;;;;;;38.67;21.77;;;0.50;99.90;;;;;;5036041;28;20223;-77
2020/12/11 08:52:57;;;;;;;37.80;18.17;;;0.60;99.90;;;;;;5036384;28;20333;-77
2020/12/11 08:55:23;;;;;;;42.53;20.83;;;0.60;99.90;;;;;;5036201;28;20731;-77
2020/12/11 08:57:50;;;;;;;44.85;23.77;;;0.50;99.90;;;;;;5036191;28;20203;-77
2020/12/11 09:00:18;;;;;;;54.10;24.88;;;0.50;99.90;;;;;;5036905;28;20203;-77
2020/12/11 09:02:44;;;;;;;62.88;30.45;;;0.50;99.90;;;;;;5036376;28;20608;-77
2020/12/11 09:05:11;;;;;;;64.95;28.35;;;0.50;99.90;;;;;;5036030;28;20223;-77
2020/12/11 09:07:37;;;;;;;47.67;24.52;;;0.50;99.90;;;;;;5035603;28;20680;-77
2020/12/11 09:10:04;;;;;;;36.97;22.17;;;0.50;99.90;;;;;;5035206;28;20203;-77
2020/12/11 09:12:37;;;;;;;48.53;22.55;;;0.50;99.90;;;;;;5035185;28;20212;-77
2020/12/11 09:15:08;;;;;;;39.28;21.70;;;0.50;99.90;;;;;;5035531;28;20228;-77
2020/12/11 09:17:36;;;;;;;39.70;21.73;;;0.60;99.90;;;;;;5035449;28;20208;-77
2020/12/11 09:20:03;;;;;;;47.65;23.00;;;0.50;99.90;;;;;;5036166;28;20217;-76
2020/12/11 09:22:29;;;;;;;43.83;21.27;;;0.50;99.90;;;;;;5035917;28;20674;-77
2020/12/11 09:24:55;;;;;;;48.58;20.73;;;0.50;99.90;;;;;;5035699;28;20220;-77
2020/12/11 09:27:21;;;;;;;39.47;20.27;;;0.60;99.90;;;;;;5035698;28;20210;-76
2020/12/11 09:29:49;;;;;;;44.58;20.80;;;0.50;99.90;;;;;;5035361;28;20203;-75
2020/12/11 09:32:22;;;;;;;45.83;22.75;;;0.60;99.90;;;;;;5035486;28;20269;-78
2020/12/11 09:34:49;;;;;;;43.83;20.85;;;0.70;99.90;;;;;;5036299;28;20239;-76
2020/12/11 09:37:16;;;;;;;42.15;21.70;;;0.70;99.90;;;;;;5035906;28;20195;-76
2020/12/11 09:39:42;;;;;;;37.58;20.10;;;0.60;99.90;;;;;;5035747;28;20210;-77
2020/12/11 09:42:22;;;;;;;38.88;20.80;;;0.60;99.90;;;;;;5035438;28;20234;-76
2020/12/11 09:45:02;;;;;;;40.28;20.17;;;0.70;99.90;;;;;;5034895;28;20238;-76
2020/12/11 09:47:44;;;;;;;46.42;20.52;;;0.70;99.90;;;;;;5036119;28;20188;-77
2020/12/11 09:50:30;;;;;;;36.63;19.58;;;0.70;99.90;;;;;;5034611;28;20216;-77
2020/12/11 09:53:04;;;;;;;45.13;22.10;;;0.70;99.90;;;;;;5036366;28;20218;-76
2020/12/11 09:55:38;;;;;;;39.15;21.63;;;0.70;99.90;;;;;;5035176;28;20230;-75
2020/12/11 09:58:05;;;;;;;47.78;22.45;;;0.70;99.90;;;;;;5035177;28;20188;-76
2020/12/11 10:00:32;;;;;;;45.47;23.58;;;0.60;99.90;;;;;;5034175;28;20204;-77
2020/12/11 10:03:02;;;;;;;39.97;20.23;;;0.70;99.90;;;;;;5034247;28;20203;-77
2020/12/11 10:05:29;;;;;;;43.63;23.52;;;0.70;99.90;;;;;;5034250;28;20224;-76
2020/12/11 10:07:56;;;;;;;37.90;22.20;;;0.70;99.90;;;;;;5034421;28;20253;-77
2020/12/11 10:10:22;;;;;;;40.67;21.00;;;0.70;99.90;;;;;;5034270;28;20234;-76
2020/12/11 10:12:48;;;;;;;38.20;22.27;;;0.80;99.90;;;;;;5034656;28;20203;-76
2020/12/11 10:15:19;;;;;;;50.45;24.30;;;0.90;99.90;;;;;;5035349;28;20223;-79
2020/12/11 10:17:47;;;;;;;46.20;21.23;;;0.90;99.90;;;;;;5036817;28;20563;-78
2020/12/11 10:21:04;;;;;;;53.53;24.50;;;0.80;99.90;;;;;;5038594;28;20583;-78
2020/12/11 10:23:31;;;;;;;45.08;22.55;;;0.90;99.90;;;;;;4924775;29;20207;-78
2020/12/11 10:25:58;;;;;;;40.15;22.15;;;1.00;99.90;;;;;;4936391;29;20223;-77
2020/12/11 10:28:24;;;;;;;45.97;21.65;;;1.00;99.90;;;;;;4996806;28;20215;-76
2020/12/11 10:30:53;;;;;;;50.67;26.52;;;1.00;99.90;;;;;;5038506;28;20224;-78
2020/12/11 10:33:20;;;;;;;44.42;23.00;;;1.00;99.90;;;;;;5037789;28;20204;-77
2020/12/11 10:35:58;;;;;;;44.88;24.15;;;0.90;99.90;;;;;;5036617;28;20242;-78
2020/12/11 10:38:27;;;;;;;47.33;25.58;;;0.80;99.90;;;;;;5039678;28;20662;-78
2020/12/11 10:41:11;;;;;;;52.60;25.13;;;0.80;99.90;;;;;;5036450;28;20199;-78
2020/12/11 10:43:38;;;;;;;50.88;24.58;;;0.90;99.90;;;;;;5040846;28;20208;-77
2020/12/11 10:46:07;;;;;;;48.45;25.13;;;0.90;99.90;;;;;;5038071;28;20224;-77
2020/12/11 10:48:34;;;;;;;44.78;21.80;;;1.00;99.90;;;;;;5037787;28;20243;-76
2020/12/11 10:51:02;;;;;;;43.17;22.75;;;1.00;99.90;;;;;;5037891;28;20258;-77
2020/12/11 10:53:28;;;;;;;41.78;21.80;;;1.00;99.90;;;;;;5036964;28;20203;-78
2020/12/11 10:55:55;;;;;;;39.33;21.25;;;0.90;99.90;;;;;;5036543;28;20220;-78
2020/12/11 10:58:22;;;;;;;54.15;25.55;;;0.90;99.90;;;;;;5033153;28;20696;-78
2020/12/11 11:00:48;;;;;;;48.38;24.63;;;0.90;99.90;;;;;;5033947;28;20214;-78
2020/12/11 11:03:14;;;;;;;37.67;22.55;;;0.90;99.90;;;;;;5033470;28;20211;-77
2020/12/11 11:05:43;;;;;;;47.33;24.80;;;0.90;99.90;;;;;;5033242;28;20224;-77
2020/12/11 11:08:09;;;;;;;46.20;24.23;;;0.80;99.90;;;;;;5035397;28;20274;-78
2020/12/11 11:10:45;;;;;;;44.88;23.23;;;0.90;99.90;;;;;;5034816;28;20224;-78
2020/12/11 11:13:24;;;;;;;43.45;22.05;;;0.90;99.90;;;;;;5033930;28;20188;-77
2020/12/11 11:15:52;;;;;;;46.60;22.98;;;0.90;99.90;;;;;;5035384;28;20310;-77
2020/12/11 11:21:24;;;;;;;50.53;23.13;;;0.90;99.90;;;;;;5033156;28;20196;-76
2020/12/11 11:24:07;;;;;;;42.60;22.17;;;1.00;99.90;;;;;;5033792;28;20600;-77
2020/12/11 11:26:38;;;;;;;49.70;23.98;;;0.90;99.90;;;;;;5033235;28;20696;-77
2020/12/11 11:29:05;;;;;;;41.05;20.85;;;1.00;99.90;;;;;;5033731;28;20188;-78
2020/12/11 11:31:46;;;;;;;40.78;20.98;;;1.00;99.90;;;;;;5034570;28;20262;-79
2020/12/11 11:34:12;;;;;;;47.03;24.85;;;1.00;99.90;;;;;;5033353;28;20198;-76
2020/12/11 11:36:48;;;;;;;42.97;23.60;;;1.00;99.90;;;;;;5034460;28;20235;-77
2020/12/11 11:39:14;;;;;;;48.35;23.55;;;1.00;99.90;;;;;;5034169;28;20202;-77
2020/12/11 11:41:47;;;;;;;42.58;20.42;;;1.10;99.90;;;;;;5036337;28;20210;-78
2020/12/11 11:47:09;;;;;;;49.90;24.27;;;1.10;99.90;;;;;;5033202;28;20703;-77
2020/12/11 11:49:40;;;;;;;43.13;24.40;;;1.20;99.90;;;;;;5032896;28;20210;-77
2020/12/11 11:52:19;;;;;;;41.30;23.40;;;1.20;99.90;;;;;;5032779;28;20208;-77
2020/12/11 11:54:48;;;;;;;47.15;24.35;;;1.20;99.90;;;;;;5032316;28;20183;-76
2020/12/11 11:57:14;;;;;;;47.97;24.35;;;1.10;99.90;;;;;;5032974;28;20204;-77
2020/12/11 11:59:40;;;;;;;46.80;24.85;;;1.20;99.90;;;;;;5032564;28;20219;-76
2020/12/11 12:02:07;;;;;;;42.20;22.48;;;1.20;99.90;;;;;;5033615;28;20771;-76
2020/12/11 12:04:34;;;;;;;51.33;25.85;;;1.20;99.90;;;;;;5033449;28;20579;-76
2020/12/11 12:07:00;;;;;;;46.17;25.40;;;1.20;99.90;;;;;;5033233;28;20203;-77
2020/12/11 12:09:27;;;;;;;51.53;26.42;;;1.30;99.90;;;;;;5034749;28;20314;-76
2020/12/11 12:12:09;;;;;;;52.45;25.80;;;1.20;99.90;;;;;;5032479;28;20224;-77
2020/12/11 12:14:38;;;;;;;50.92;24.85;;;1.30;99.90;;;;;;5038654;28;20194;-77
2020/12/11 12:17:11;;;;;;;65.68;28.40;;;1.40;99.90;;;;;;5039129;28;20214;-78
2020/12/11 12:19:42;;;;;;;52.83;27.17;;;1.40;99.90;;;;;;5036970;28;20192;-76
2020/12/11 12:30:28;;;;;;;62.70;25.38;;;1.50;99.90;;;;;;5037604;28;20195;-78
2020/12/11 12:36:33;;;;;;;52.60;24.70;;;1.60;99.90;;;;;;5040779;28;20223;-76
2020/12/11 12:39:11;;;;;;;66.38;29.20;;;1.60;99.90;;;;;;5042518;28;20188;-77
2020/12/11 12:44:22;;;;;;;53.13;26.30;;;1.70;99.90;;;;;;5038612;28;20183;-77
2020/12/11 12:46:48;;;;;;;55.78;26.17;;;1.80;99.90;;;;;;5036222;28;20255;-77
2020/12/11 12:49:14;;;;;;;63.00;29.65;;;1.80;99.90;;;;;;5037501;28;20212;-77
2020/12/11 12:51:41;;;;;;;59.63;26.58;;;1.80;99.90;;;;;;5044418;28;20601;-78
2020/12/11 12:54:08;;;;;;;62.10;27.83;;;1.70;99.90;;;;;;5041756;28;20210;-76
2020/12/11 12:56:44;;;;;;;53.72;27.45;;;1.80;99.90;;;;;;5037722;28;20223;-78
2020/12/11 12:59:19;;;;;;;55.33;26.70;;;1.80;99.90;;;;;;5037573;28;20196;-78
2020/12/11 13:02:06;;;;;;;53.10;26.75;;;1.80;99.90;;;;;;5037152;28;20183;-79
2020/12/11 13:04:38;;;;;;;56.85;28.95;;;1.90;99.90;;;;;;5036543;28;20187;-76
2020/12/11 13:07:06;;;;;;;60.28;27.63;;;1.90;99.90;;;;;;5036875;28;20188;-77
2020/12/11 13:09:33;;;;;;;51.17;27.15;;;2.00;99.90;;;;;;5036960;28;20238;-77
2020/12/11 13:11:59;;;;;;;45.60;25.48;;;2.00;99.90;;;;;;5036360;28;20230;-77